| time (UTC) | temp C | wind direction | speed KPH | gust KPH | rain 1hr cm | rain 24hr cm | rain mn cm | humidity % | barometer mb |
| 20260507094542 | 11 | 16 | 3.2 | 9.7 | 0.00 | 0.00 | 0.00 | 79 | 1020.1 |
| 20260507093041 | 11 | 88 | 0.0 | 3.2 | 0.00 | 0.00 | 0.00 | 79 | 1020.3 |
| 20260507091542 | 11 | 333 | 0.0 | 8.0 | 0.00 | 0.00 | 0.00 | 80 | 1020.4 |
| 20260507090037 | 11 | 308 | 1.6 | 9.7 | 0.00 | 0.00 | 0.00 | 80 | 1020.5 |
| 20260507084535 | 11 | 24 | 0.0 | 6.4 | 0.00 | 0.00 | 0.00 | 80 | 1020.4 |
| 20260507083035 | 11 | 32 | 1.6 | 8.0 | 0.00 | 0.00 | 0.00 | 80 | 1020.5 |
| 20260507081533 | 11 | 10 | 1.6 | 8.0 | 0.00 | 0.00 | 0.00 | 81 | 1020.4 |
| 20260507080036 | 11 | 5 | 1.6 | 6.4 | 0.00 | 0.00 | 0.00 | 80 | 1020.5 |
| 20260507074532 | 11 | 317 | 1.6 | 8.0 | 0.00 | 0.00 | 0.00 | 81 | 1020.5 |
| 20260507073030 | 11 | 340 | 0.0 | 6.4 | 0.00 | 0.00 | 0.00 | 81 | 1020.5 |
| 20260507071528 | 11 | 30 | 0.0 | 6.4 | 0.00 | 0.00 | 0.00 | 81 | 1020.4 |
| 20260507070028 | 11 | 44 | 1.6 | 8.0 | 0.00 | 0.00 | 0.00 | 82 | 1020.3 |
| 20260507064527 | 11 | 30 | 1.6 | 4.8 | 0.00 | 0.00 | 0.00 | 82 | 1020.4 |
| 20260507063039 | 12 | 46 | 1.6 | 12.9 | 0.00 | 0.00 | 0.00 | 82 | 1020.3 |
| 20260507061527 | 12 | 57 | 3.2 | 9.7 | 0.00 | 0.00 | 0.00 | 82 | 1020.4 |
| 20260507060039 | 12 | 46 | 3.2 | 9.7 | 0.00 | 0.00 | 0.00 | 82 | 1020.4 |
| 20260507054522 | 12 | 269 | 3.2 | 12.9 | 0.00 | 0.00 | 0.00 | 82 | 1020.3 |
| 20260507053026 | 12 | 82 | 4.8 | 16.1 | 0.00 | 0.00 | 0.00 | 81 | 1020.4 |
| 20260507051519 | 12 | 40 | 3.2 | 16.1 | 0.00 | 0.00 | 0.00 | 81 | 1020.3 |
| 20260507050017 | 12 | 49 | 3.2 | 11.3 | 0.00 | 0.00 | 0.00 | 81 | 1020.4 |
| 20260507044518 | 12 | 125 | 4.8 | 16.1 | 0.00 | 0.00 | 0.00 | 80 | 1020.4 |
| 20260507043016 | 13 | 46 | 3.2 | 11.3 | 0.00 | 0.00 | 0.00 | 80 | 1020.2 |
| 20260507041515 | 13 | 56 | 1.6 | 14.5 | 0.00 | 0.00 | 0.00 | 80 | 1020.1 |
| 20260507040017 | 13 | 5 | 4.8 | 17.7 | 0.00 | 0.00 | 0.00 | 80 | 1020.0 |
| 20260507034527 | 13 | 51 | 4.8 | 16.1 | 0.00 | 0.00 | 0.00 | 80 | 1019.8 |
| 20260507033013 | 13 | 65 | 3.2 | 14.5 | 0.00 | 0.00 | 0.00 | 81 | 1019.5 |
| 20260507031513 | 13 | 17 | 3.2 | 16.1 | 0.00 | 0.00 | 0.00 | 80 | 1019.3 |
| 20260507030012 | 14 | 30 | 1.6 | 9.7 | 0.00 | 0.00 | 0.00 | 79 | 1019.2 |
| 20260507024511 | 15 | 62 | 4.8 | 14.5 | 0.00 | 0.00 | 0.00 | 78 | 1019.0 |
| 20260507023011 | 15 | 61 | 4.8 | 9.7 | 0.00 | 0.00 | 0.00 | 78 | 1018.9 |
| 20260507021510 | 15 | 80 | 4.8 | 19.3 | 0.00 | 0.00 | 0.00 | 76 | 1018.9 |
| 20260507020024 | 16 | 341 | 4.8 | 14.5 | 0.00 | 0.00 | 0.00 | 74 | 1019.1 |
| 20260507014509 | 16 | 55 | 4.8 | 19.3 | 0.00 | 0.00 | 0.00 | 75 | 1019.1 |
| 20260507013018 | 16 | 75 | 6.4 | 19.3 | 0.00 | 0.00 | 0.00 | 73 | 1019.1 |
| 20260507011509 | 17 | 46 | 6.4 | 17.7 | 0.00 | 0.00 | 0.00 | 72 | 1019.0 |
| 20260507010008 | 18 | 40 | 3.2 | 17.7 | 0.00 | 0.00 | 0.00 | 72 | 1019.0 |
| 20260507004506 | 18 | 312 | 1.6 | 14.5 | 0.00 | 0.00 | 0.00 | 72 | 1018.9 |
| 20260507003007 | 18 | 94 | 3.2 | 11.3 | 0.00 | 0.00 | 0.00 | 71 | 1018.9 |
| 20260507001506 | 19 | 92 | 0.0 | 4.8 | 0.00 | 0.00 | 0.00 | 71 | 1018.9 |
| 20260507000005 | 19 | 141 | 3.2 | 8.0 | 0.00 | 0.00 | 0.00 | 69 | 1018.8 |
| 20260506234504 | 19 | 178 | 3.2 | 6.4 | 0.00 | 0.00 | 0.00 | 70 | 1018.8 |
| 20260506233006 | 20 | 133 | 3.2 | 9.7 | 0.00 | 0.00 | 0.00 | 68 | 1018.8 |
| 20260506231503 | 20 | 120 | 0.0 | 4.8 | 0.00 | 0.00 | 0.00 | 68 | 1018.9 |
| 20260506230002 | 20 | 111 | 3.2 | 9.7 | 0.00 | 0.00 | 0.00 | 68 | 1019.1 |
| 20260506224505 | 19 | 217 | 1.6 | 6.4 | 0.00 | 0.00 | 0.00 | 69 | 1019.2 |
| 20260506223001 | 20 | 141 | 1.6 | 11.3 | 0.00 | 0.00 | 0.00 | 66 | 1019.4 |
| 20260506221602 | 20 | 221 | 1.6 | 11.3 | 0.00 | 0.00 | 0.00 | 68 | 1019.5 |
| 20260506220104 | 21 | 323 | 1.6 | 9.7 | 0.00 | 0.00 | 0.00 | 66 | 1019.5 |
| 20260506214601 | 20 | 129 | 6.4 | 16.1 | 0.00 | 0.00 | 0.00 | 69 | 1019.4 |
| 20260506213053 | 19 | 140 | 8.0 | 12.9 | 0.00 | 0.00 | 0.00 | 71 | 1019.6 |
| 20260506211604 | 19 | 304 | 4.8 | 11.3 | 0.00 | 0.00 | 0.00 | 69 | 1019.9 |
| 20260506210052 | 20 | 238 | 3.2 | 12.9 | 0.00 | 0.00 | 0.00 | 69 | 1019.9 |
| 20260506204548 | 18 | 189 | 8.0 | 16.1 | 0.00 | 0.00 | 0.00 | 72 | 1019.8 |
| 20260506203043 | 17 | 131 | 11.3 | 16.1 | 0.00 | 0.00 | 0.00 | 76 | 1019.8 |
| 20260506201541 | 17 | 138 | 4.8 | 16.1 | 0.00 | 0.00 | 0.00 | 80 | 1019.9 |
| 20260506200043 | 16 | 260 | 1.6 | 11.3 | 0.00 | 0.00 | 0.00 | 79 | 1020.1 |
| 20260506194544 | 16 | 198 | 1.6 | 12.9 | 0.00 | 0.00 | 0.00 | 78 | 1020.3 |
| 20260506193035 | 16 | 173 | 3.2 | 14.5 | 0.00 | 0.00 | 0.00 | 79 | 1020.3 |
| 20260506191532 | 16 | 214 | 3.2 | 9.7 | 0.00 | 0.00 | 0.00 | 79 | 1020.1 |
| 20260506190030 | 16 | 281 | 1.6 | 11.3 | 0.00 | 0.00 | 0.00 | 79 | 1020.2 |
| 20260506184529 | 16 | 307 | 3.2 | 12.9 | 0.00 | 0.00 | 0.00 | 81 | 1020.0 |
| 20260506183028 | 15 | 136 | 3.2 | 12.9 | 0.00 | 0.00 | 0.00 | 82 | 1020.0 |
| 20260506181524 | 15 | 292 | 0.0 | 4.8 | 0.00 | 0.00 | 0.00 | 83 | 1020.1 |
| 20260506180021 | 14 | 226 | 3.2 | 8.0 | 0.00 | 0.00 | 0.00 | 83 | 1020.1 |
| 20260506174519 | 14 | 299 | 1.6 | 6.4 | 0.00 | 0.00 | 0.00 | 84 | 1020.1 |
| 20260506173023 | 13 | 165 | 1.6 | 6.4 | 0.00 | 0.00 | 0.00 | 86 | 1019.8 |
| 20260506171518 | 13 | 211 | 3.2 | 6.4 | 0.00 | 0.00 | 0.00 | 86 | 1019.8 |
| 20260506170016 | 13 | 340 | 1.6 | 8.0 | 0.00 | 0.00 | 0.00 | 86 | 1020.0 |
| 20260506164517 | 13 | 198 | 0.0 | 3.2 | 0.00 | 0.00 | 0.00 | 87 | 1019.9 |
| 20260506163019 | 13 | 161 | 3.2 | 6.4 | 0.00 | 0.00 | 0.00 | 88 | 1019.8 |
| 20260506161516 | 13 | 180 | 1.6 | 4.8 | 0.00 | 0.00 | 0.00 | 89 | 1019.6 |
| 20260506160018 | 12 | 176 | 1.6 | 9.7 | 0.00 | 0.00 | 0.00 | 89 | 1019.5 |
| 20260506154516 | 12 | 105 | 3.2 | 6.4 | 0.00 | 0.00 | 0.00 | 88 | 1019.0 |
| 20260506153013 | 12 | 24 | 0.0 | 3.2 | 0.00 | 0.00 | 0.00 | 88 | 1019.8 |
| 20260506151513 | 12 | 314 | 0.0 | 4.8 | 0.00 | 0.00 | 0.00 | 88 | 1019.9 |
| 20260506150011 | 12 | 326 | 0.0 | 3.2 | 0.00 | 0.00 | 0.00 | 88 | 1019.8 |
| 20260506144510 | 12 | 355 | 0.0 | 3.2 | 0.00 | 0.00 | 0.00 | 89 | 1019.7 |
| 20260506143007 | 12 | 311 | 0.0 | 3.2 | 0.00 | 0.00 | 0.00 | 89 | 1019.2 |
| 20260506141505 | 12 | 178 | 1.6 | 4.8 | 0.00 | 0.00 | 0.00 | 89 | 1018.9 |
| 20260506140006 | 12 | 192 | 0.0 | 4.8 | 0.00 | 0.00 | 0.00 | 89 | 1019.0 |
| 20260506134504 | 12 | 147 | 0.0 | 4.8 | 0.00 | 0.00 | 0.00 | 88 | 1018.8 |
| 20260506133003 | 12 | 162 | 0.0 | 8.0 | 0.00 | 0.00 | 0.00 | 88 | 1018.7 |
| 20260506131502 | 12 | 121 | 0.0 | 4.8 | 0.00 | 0.00 | 0.00 | 88 | 1018.6 |
| 20260506130100 | 12 | 101 | 1.6 | 4.8 | 0.00 | 0.00 | 0.00 | 88 | 1018.6 |
| 20260506124558 | 12 | 129 | 1.6 | 3.2 | 0.00 | 0.00 | 0.00 | 88 | 1018.5 |
| 20260506123057 | 12 | 80 | 0.0 | 4.8 | 0.00 | 0.00 | 0.00 | 87 | 1018.4 |
| 20260506121605 | 12 | 65 | 1.6 | 6.4 | 0.00 | 0.00 | 0.00 | 87 | 1018.5 |
| 20260506120118 | 12 | 39 | 1.6 | 6.4 | 0.00 | 0.00 | 0.00 | 87 | 1018.4 |
| 20260506114552 | 12 | 70 | 0.0 | 4.8 | 0.00 | 0.00 | 0.00 | 86 | 1018.1 |
| 20260506113051 | 12 | 44 | 1.6 | 8.0 | 0.00 | 0.00 | 0.00 | 86 | 1018.0 |
| 20260506111548 | 12 | 101 | 3.2 | 6.4 | 0.00 | 0.00 | 0.00 | 86 | 1017.9 |
| 20260506110047 | 12 | 63 | 0.0 | 3.2 | 0.00 | 0.00 | 0.00 | 86 | 1017.7 |
| 20260506104546 | 12 | 82 | 1.6 | 8.0 | 0.00 | 0.00 | 0.00 | 86 | 1017.4 |
| 20260506103043 | 13 | 67 | 1.6 | 6.4 | 0.00 | 0.00 | 0.00 | 85 | 1017.2 |
| 20260506101540 | 13 | 68 | 1.6 | 9.7 | 0.00 | 0.00 | 0.00 | 85 | 1017.1 |
| 20260506100039 | 13 | 65 | 0.0 | 6.4 | 0.00 | 0.00 | 0.00 | 85 | 1017.1 |